Hillsboro Beach, FL

7:34 AM EDT on April 29, 2017 (GMT -0400)
LHPTennisWeather | | Change Station

Elev 8 ft 26.28 °N, 80.08 °W | Updated 15 minutes ago

Partly Cloudy
Partly Cloudy
78.0 °F
Feels Like 80 °F
N
12.0
Wind Variable Wind from ESE
Gusts 17.0 mph

Today
High -- | Low -- °F
--% Chance of Precip.
Yesterday
High -- | Low -- °F
Precip. -- in
Pressure 30.12 in
Visibility 9.0 miles
Clouds Few 2100 ft
Few 3500 ft
Heat Index 80 °F
Dew Point 71 °F
Humidity 80%
Rainfall 0.00 in
Snow Depth Not available.
6:44 AM 7:51 PM
Waxing Crescent, 13% visible
METAR KPMP 291053Z 10015KT 9SM FEW021 FEW035 26/21 A3012 RMK AO2 SLP198 T02610211
Pressure 30.12 in
Visibility 9.0 miles
Clouds Few 2100 ft
Few 3500 ft
Heat Index 80 °F
Dew Point 71 °F
Humidity 80%
Rainfall 0.00 in
Snow Depth Not available.
6:44 AM 7:51 PM
Waxing Crescent, 13% visible
METAR KPMP 291053Z 10015KT 9SM FEW021 FEW035 26/21 A3012 RMK AO2 SLP198 T02610211

Get Severe Weather Alerts

Thanks for signing up!

Be on the lookout for a verification email in your inbox.

You'll start receiving the daily forecast at 8 AM.

×

10-Day Weather Forecast

Almanac

Astronomy

Apr. 29, 2017 Rise Set
Actual Time
Civil Twilight
Nautical Twilight
Astronomical Twilight
Moon
Length of Visible Light
Length of Day
Tomorrow will be .
, % of the Moon is Illuminated

Today's Extremes

State Highs State Lows

Community

WunderPhotos

WunderBlog® & News

Nearby

Air Quality

  Air Quality AQ Index Pollutant
Not available.

Snow Depth

Station Depth Elevation

Earthquake Activity

City Distance Mag. Time & Date
Minimum magnitude displayed is 2.5.

Coastal Water Temperatures

Place Temperature

Stations

Nearby Weather Stations

Station Location Temp. Windchill Dew Point Humidity Wind Precip. Elev Updated Type
                   

Watches & Warnings

There are currently no watches in effect.